»·PEaware :: N656BC KCMA-KRNM

N656BC :: KCMA-KRNM

FLIGHT INFORMATION

Flight Status: Arrived
Operator: Privately registered:
United States
More flights under this callsign
Pilot: Nolan B. (9018)
Aircraft: Diamond DA-40
(DA40)
More flights by this aircraft type
Origin: KCMA Camarillo
United States
Destination: KRNM Ramona
United States
More flights between these airports :: More routes between these airports
Route: +
File this flight plan on PilotEdge
Remarks:
Altitude:
(Current/Filed)
5,500ft
Speed:
(Current/Filed)
0kts
Departed: 04-Sep-20 01:43 PM
Arrived: 04-Sep-20 02:53 PM
Distance/Time
Traveled:
130nm/1:10
Distance/Time
To Go:
Arrived

Flight Plot

Page will automatically refresh every two minutes.


Map Options




Map Legend


Flown Route
Filed Route
Departure Airport
Arrival Airport
Navaid (VOR, NDB)
Fix

Horizontal Profiles

Position Reports

Time Latitude Longitude Heading Altitude Ground
Speed
04-Sep-20 13:41 34.223461 -119.031528 91 2824ft 81kts
04-Sep-20 13:42 34.223436 -119.004127 92 3433ft 80kts
04-Sep-20 13:43 34.222119 -118.976674 99 4037ft 82kts
04-Sep-20 13:44 34.222046 -118.948762 88 4606ft 84kts
04-Sep-20 13:45 34.223633 -118.920570 88 5177ft 85kts
04-Sep-20 13:46 34.225623 -118.886401 87 5449ft 111kts
04-Sep-20 13:47 34.227760 -118.849158 87 5517ft 120kts
04-Sep-20 13:48 34.230106 -118.807424 87 5516ft 124kts
04-Sep-20 13:49 34.232435 -118.765560 87 5514ft 125kts
04-Sep-20 13:50 34.234754 -118.723630 87 5517ft 123kts
04-Sep-20 13:51 34.237147 -118.682026 86 5520ft 124kts
04-Sep-20 13:52 34.239619 -118.640227 82 5523ft 125kts
04-Sep-20 13:53 34.232703 -118.600046 112 5520ft 124kts
04-Sep-20 13:54 34.213858 -118.568924 159 5525ft 121kts
04-Sep-20 13:55 34.182440 -118.553473 159 5519ft 122kts
04-Sep-20 13:56 34.151021 -118.538177 159 5514ft 121kts
04-Sep-20 13:57 34.119604 -118.522841 159 5510ft 122kts
04-Sep-20 13:58 34.087814 -118.507325 159 5502ft 123kts
04-Sep-20 13:59 34.056375 -118.492005 159 5504ft 122kts
04-Sep-20 14:00 34.024770 -118.476597 159 5504ft 121kts
04-Sep-20 14:01 33.993278 -118.461232 158 5497ft 122kts
04-Sep-20 14:02 33.961873 -118.445620 158 5496ft 122kts
04-Sep-20 14:03 33.930783 -118.429763 139 5492ft 123kts
04-Sep-20 14:04 33.905396 -118.401780 139 5491ft 123kts
04-Sep-20 14:05 33.879857 -118.374255 139 5489ft 123kts
04-Sep-20 14:06 33.854372 -118.346713 139 5487ft 123kts
04-Sep-20 14:07 33.828901 -118.319193 139 5488ft 123kts
04-Sep-20 14:08 33.803390 -118.291644 139 5484ft 122kts
04-Sep-20 14:09 33.778030 -118.264257 139 5485ft 122kts
04-Sep-20 14:10 33.752392 -118.236595 139 5416ft 127kts
04-Sep-20 14:11 33.727184 -118.209393 139 5509ft 122kts
04-Sep-20 14:12 33.706093 -118.177535 127 5508ft 123kts
04-Sep-20 14:13 33.685815 -118.144166 127 5506ft 123kts
04-Sep-20 14:14 33.665501 -118.110724 127 5505ft 124kts
04-Sep-20 14:15 33.645134 -118.077224 127 5504ft 124kts
04-Sep-20 14:16 33.624743 -118.043703 127 5506ft 124kts
04-Sep-20 14:17 33.604353 -118.010205 127 5506ft 124kts
04-Sep-20 14:18 33.584025 -117.976841 127 5507ft 124kts
04-Sep-20 14:19 33.563638 -117.943403 127 5507ft 124kts
04-Sep-20 14:20 33.543227 -117.909973 127 5508ft 124kts
04-Sep-20 14:21 33.522808 -117.876537 127 5507ft 124kts
04-Sep-20 14:22 33.502431 -117.843211 127 5506ft 123kts
04-Sep-20 14:23 33.482087 -117.809977 127 5505ft 123kts
04-Sep-20 14:24 33.461721 -117.776723 127 5504ft 124kts
04-Sep-20 14:25 33.441280 -117.743390 127 5504ft 124kts
04-Sep-20 14:26 33.420832 -117.710063 127 5504ft 124kts
04-Sep-20 14:27 33.400352 -117.676721 127 5506ft 124kts
04-Sep-20 14:28 33.379889 -117.643436 127 5507ft 124kts
04-Sep-20 14:29 33.356927 -117.613008 136 5508ft 123kts
04-Sep-20 14:30 33.332506 -117.584227 136 5483ft 125kts
04-Sep-20 14:31 33.307734 -117.555020 136 5455ft 123kts
04-Sep-20 14:32 33.283282 -117.526095 136 5456ft 123kts
04-Sep-20 14:33 33.258862 -117.497208 136 5457ft 123kts
04-Sep-20 14:34 33.234556 -117.468418 136 5458ft 123kts
04-Sep-20 14:35 33.210180 -117.439473 132 5458ft 123kts
04-Sep-20 14:36 33.203147 -117.399186 100 5459ft 125kts
04-Sep-20 14:37 33.197461 -117.358238 100 5463ft 125kts
04-Sep-20 14:38 33.190238 -117.318041 135 5464ft 123kts
04-Sep-20 14:39 33.178362 -117.280301 98 5461ft 125kts
04-Sep-20 14:40 33.169070 -117.240635 109 5469ft 124kts
04-Sep-20 14:41 33.154996 -117.203010 116 5470ft 123kts
04-Sep-20 14:42 33.140120 -117.165993 116 5472ft 123kts
04-Sep-20 14:43 33.125114 -117.128684 116 5220ft 127kts
04-Sep-20 14:44 33.110056 -117.091168 116 4525ft 124kts
04-Sep-20 14:45 33.095173 -117.054190 116 3824ft 123kts
04-Sep-20 14:46 33.080497 -117.017724 116 3239ft 122kts
04-Sep-20 14:47 33.065878 -116.981412 116 3099ft 121kts
04-Sep-20 14:48 33.051604 -116.945127 106 2572ft 119kts
04-Sep-20 14:49 33.048433 -116.909312 99 2367ft 101kts
04-Sep-20 14:50 33.044203 -116.880224 165 2232ft 81kts
04-Sep-20 14:51 33.036695 -116.898496 277 1608ft 77kts
04-Sep-20 14:52 33.039707 -116.914952 44 1394ft 7kts
04-Sep-20 14:53 33.039385 -116.911874 97 1395ft 10kts
04-Sep-20 14:54 33.039775 -116.911334 271 1396ft 0kts
04-Sep-20 14:55 33.039775 -116.911334 271 1396ft 0kts

Navigation Log

Ident Type
Flight plan parsing failed, navigation log unavailable